createdAt,value
2023-04-23T00:01:28.606Z,99879.03
2023-04-23T00:03:57.344Z,99872.28
2023-04-23T00:06:27.009Z,99865.28
2023-04-23T00:08:55.633Z,99868.06
2023-04-23T00:11:22.986Z,99866.63
2023-04-23T00:13:50.391Z,99872.06
2023-04-23T00:16:21.128Z,99867.72
2023-04-23T00:18:48.457Z,99870.50
2023-04-23T00:21:15.529Z,99869.81
2023-04-23T00:23:42.508Z,99872.56
2023-04-23T00:26:09.491Z,99872.69
2023-04-23T00:28:36.508Z,99872.91
2023-04-23T00:31:03.451Z,99869.53
2023-04-23T00:33:30.566Z,99867.69
2023-04-23T00:35:57.656Z,99864.56
2023-04-23T00:38:26.743Z,99863.16
2023-04-23T00:40:53.762Z,99866.53
2023-04-23T00:43:21.008Z,99858.69
2023-04-23T00:45:48.489Z,99857.84
2023-04-23T00:48:16.557Z,99858.09
2023-04-23T00:50:43.670Z,99849.41
2023-04-23T00:53:10.797Z,99847.69
2023-04-23T00:55:37.897Z,99850.34
2023-04-23T00:58:06.967Z,99845.75
2023-04-23T01:00:42.470Z,99847.69
2023-04-23T01:03:09.537Z,99848.69
2023-04-23T01:05:36.612Z,99852.31
2023-04-23T01:08:03.896Z,99851.59
2023-04-23T01:10:32.982Z,99854.34
2023-04-23T01:13:00.361Z,99849.28
2023-04-23T01:15:27.366Z,99853.78
2023-04-23T01:17:54.295Z,99838.09
2023-04-23T01:20:21.398Z,99842.41
2023-04-23T01:22:48.365Z,99836.38
2023-04-23T01:25:15.773Z,99832.16
2023-04-23T01:27:42.835Z,99841.69
2023-04-23T01:30:11.273Z,99840.13
2023-04-23T01:32:39.740Z,99833.25
2023-04-23T01:35:07.549Z,99838.56
2023-04-23T01:37:36.109Z,99834.09
2023-04-23T01:40:03.163Z,99834.22
2023-04-23T01:42:30.129Z,99830.13
2023-04-23T01:44:57.113Z,99837.84
2023-04-23T01:47:24.641Z,99833.72
2023-04-23T01:49:51.657Z,99833.50
2023-04-23T01:52:19.026Z,99836.28
2023-04-23T01:54:45.964Z,99830.13
2023-04-23T01:57:13.230Z,99832.06
2023-04-23T01:59:41.327Z,99825.06
2023-04-23T02:02:11.415Z,99832.53
2023-04-23T02:04:40.905Z,99830.59
2023-04-23T02:07:08.230Z,99824.44
2023-04-23T02:09:35.161Z,99831.59
2023-04-23T02:12:02.152Z,99834.25
2023-04-23T02:14:30.168Z,99827.22
2023-04-23T02:16:58.133Z,99833.50
2023-04-23T02:19:25.239Z,99827.47
2023-04-23T02:21:52.180Z,99827.47
2023-04-23T02:24:19.161Z,99834.59
2023-04-23T02:26:46.078Z,99815.44
2023-04-23T02:29:13.092Z,99821.56
2023-04-23T02:31:40.131Z,99829.50
2023-04-23T02:34:07.196Z,99828.69
2023-04-23T02:36:34.279Z,99833.25
2023-04-23T02:39:01.535Z,99835.91
2023-04-23T02:41:28.503Z,99842.22
2023-04-23T02:43:55.406Z,99837.84
2023-04-23T02:46:22.322Z,99840.63
2023-04-23T02:48:49.249Z,99841.59
2023-04-23T02:51:16.393Z,99837.13
2023-04-23T02:53:43.329Z,99840.75
2023-04-23T02:56:10.262Z,99836.28
2023-04-23T02:58:37.269Z,99840.75
2023-04-23T03:01:05.658Z,99839.78
2023-04-23T03:03:33.633Z,99843.28
2023-04-23T03:06:02.747Z,99844.97
2023-04-23T03:08:29.676Z,99832.78
2023-04-23T03:10:56.650Z,99840.88
2023-04-23T03:13:23.608Z,99839.06
2023-04-23T03:15:51.611Z,99848.47
2023-04-23T03:18:19.082Z,99845.81
2023-04-23T03:20:46.110Z,99845.81
2023-04-23T03:23:13.072Z,99851.13
2023-04-23T03:25:40.279Z,99849.41
2023-04-23T03:28:07.332Z,99854.72
2023-04-23T03:30:35.035Z,99849.31
2023-04-23T03:33:05.097Z,99854.50
2023-04-23T03:35:32.029Z,99842.53
2023-04-23T03:37:58.944Z,99861.03
2023-04-23T03:40:26.259Z,99850.63
2023-04-23T03:42:53.237Z,99846.06
2023-04-23T03:45:20.174Z,99852.22
2023-04-23T03:47:47.274Z,99852.34
2023-04-23T03:50:14.408Z,99846.06
2023-04-23T03:52:41.619Z,99843.41
2023-04-23T03:55:09.351Z,99845.34
2023-04-23T03:57:37.404Z,99841.72
2023-04-23T04:00:08.693Z,99844.38
2023-04-23T04:02:36.201Z,99843.41
2023-04-23T04:05:03.618Z,99844.38
2023-04-23T04:07:31.000Z,99839.06
2023-04-23T04:09:57.978Z,99836.66
2023-04-23T04:12:24.994Z,99844.25
2023-04-23T04:14:51.936Z,99846.06
2023-04-23T04:17:18.987Z,99837.13
2023-04-23T04:19:45.878Z,99831.94
2023-04-23T04:22:12.878Z,99833.50
2023-04-23T04:24:42.522Z,99835.19
2023-04-23T04:27:09.974Z,99821.31
2023-04-23T04:29:37.432Z,99837.00
2023-04-23T04:32:05.654Z,99838.00
2023-04-23T04:34:33.060Z,99827.72
2023-04-23T04:36:59.971Z,99826.75
2023-04-23T04:39:27.297Z,99829.41
2023-04-23T04:41:54.882Z,99826.75
2023-04-23T04:44:22.629Z,99828.69
2023-04-23T04:46:49.640Z,99831.81
2023-04-23T04:49:19.890Z,99825.91
2023-04-23T04:51:46.857Z,99833.75
2023-04-23T04:54:13.931Z,99828.47
2023-04-23T04:56:40.912Z,99820.59
2023-04-23T04:59:07.849Z,99826.75
2023-04-23T05:01:35.032Z,99817.09
2023-04-23T05:04:02.457Z,99822.53
2023-04-23T05:06:29.633Z,99821.69
2023-04-23T05:08:56.622Z,99822.63
2023-04-23T05:11:23.613Z,99823.63
2023-04-23T05:13:50.560Z,99825.28
2023-04-23T05:16:17.596Z,99821.81
2023-04-23T05:18:44.544Z,99829.78
2023-04-23T05:21:11.510Z,99822.78
2023-04-23T05:23:38.534Z,99825.28
2023-04-23T05:26:05.624Z,99819.28
2023-04-23T05:28:32.668Z,99818.31
2023-04-23T05:30:59.953Z,99813.00
2023-04-23T05:33:32.888Z,99807.72
2023-04-23T05:36:00.710Z,99809.38
2023-04-23T05:38:27.683Z,99803.25
2023-04-23T05:40:54.585Z,99813.72
2023-04-23T05:43:21.659Z,99824.81
2023-04-23T05:45:48.653Z,99826.13
2023-04-23T05:48:15.649Z,99827.72
2023-04-23T05:50:42.858Z,99828.41
2023-04-23T05:53:09.882Z,99830.19
2023-04-23T05:55:37.076Z,99821.97
2023-04-23T05:58:05.418Z,99827.25
2023-04-23T06:00:32.836Z,99829.53
2023-04-23T06:02:59.834Z,99822.28
2023-04-23T06:05:26.923Z,99820.25
2023-04-23T06:07:54.246Z,99829.06
2023-04-23T06:10:21.172Z,99829.53
2023-04-23T06:12:48.314Z,99826.97
2023-04-23T06:15:15.508Z,99831.47
2023-04-23T06:17:42.540Z,99830.84
2023-04-23T06:20:12.180Z,99826.50
2023-04-23T06:22:39.287Z,99829.91
2023-04-23T06:25:06.813Z,99826.41
2023-04-23T06:27:34.400Z,99824.69
2023-04-23T06:30:01.456Z,99829.75
2023-04-23T06:32:28.390Z,99823.38
2023-04-23T06:35:01.373Z,99833.28
2023-04-23T06:37:31.095Z,99829.63
2023-04-23T06:39:59.321Z,99834.00
2023-04-23T06:42:26.331Z,99827.97
2023-04-23T06:44:53.498Z,99838.34
2023-04-23T06:47:20.599Z,99840.88
2023-04-23T06:49:47.620Z,99839.78
2023-04-23T06:52:14.688Z,99822.16
2023-04-23T06:54:42.179Z,99831.34
2023-04-23T06:57:09.760Z,99827.22
2023-04-23T06:59:36.903Z,99825.41
2023-04-23T07:02:04.337Z,99826.88
2023-04-23T07:04:31.868Z,99825.81
2023-04-23T07:06:59.890Z,99829.16
2023-04-23T07:09:29.856Z,99825.56
2023-04-23T07:11:57.713Z,99825.44
2023-04-23T07:14:25.527Z,99820.00
2023-04-23T07:16:52.660Z,99828.44
2023-04-23T07:19:19.722Z,99823.72
2023-04-23T07:21:46.792Z,99830.25
2023-04-23T07:24:13.936Z,99830.97
2023-04-23T07:26:41.366Z,99830.97
2023-04-23T07:29:11.016Z,99824.81
2023-04-23T07:31:39.761Z,99819.88
2023-04-23T07:34:07.153Z,99824.34
2023-04-23T07:36:34.245Z,99827.00
2023-04-23T07:39:02.249Z,99836.75
2023-04-23T07:41:29.282Z,99823.38
2023-04-23T07:43:57.040Z,99826.16
2023-04-23T07:46:24.311Z,99829.53
2023-04-23T07:48:51.983Z,99831.81
2023-04-23T07:51:19.227Z,99835.19
2023-04-23T07:53:47.469Z,99840.75
2023-04-23T07:56:14.961Z,99825.00
2023-04-23T07:58:42.345Z,99829.84
2023-04-23T08:01:09.475Z,99828.44
2023-04-23T08:03:36.928Z,99834.72
2023-04-23T08:06:05.282Z,99828.09
2023-04-23T08:08:32.445Z,99833.25
2023-04-23T08:10:59.651Z,99833.75
2023-04-23T08:13:26.999Z,99836.91
2023-04-23T08:15:54.141Z,99835.81
2023-04-23T08:18:21.429Z,99842.44
2023-04-23T08:20:49.297Z,99836.91
2023-04-23T08:23:16.409Z,99845.34
2023-04-23T08:25:43.674Z,99837.25
2023-04-23T08:28:10.741Z,99833.50
2023-04-23T08:30:37.830Z,99839.88
2023-04-23T08:33:05.025Z,99838.69
2023-04-23T08:35:32.053Z,99849.19
2023-04-23T08:37:59.177Z,99853.41
2023-04-23T08:40:30.322Z,99848.81
2023-04-23T08:43:03.851Z,99848.94
2023-04-23T08:45:31.410Z,99855.81
2023-04-23T08:48:02.655Z,99851.22
2023-04-23T08:50:31.381Z,99857.25
2023-04-23T08:52:58.925Z,99853.50
2023-04-23T08:55:26.737Z,99860.50
2023-04-23T08:57:54.025Z,99859.41
2023-04-23T09:00:23.568Z,99858.56
2023-04-23T09:02:51.035Z,99859.31
2023-04-23T09:05:18.786Z,99869.94
2023-04-23T09:07:46.316Z,99863.88
2023-04-23T09:10:17.007Z,99865.56
2023-04-23T09:12:45.833Z,99869.19
2023-04-23T09:15:13.895Z,99873.53
2023-04-23T09:17:44.251Z,99870.88
2023-04-23T09:20:12.843Z,99878.84
2023-04-23T09:22:45.135Z,99877.91
2023-04-23T09:25:18.345Z,99879.72
2023-04-23T09:27:46.881Z,99884.88
2023-04-23T09:30:15.194Z,99890.19
2023-04-23T09:32:44.304Z,99889.25
2023-04-23T09:35:14.436Z,99886.59
2023-04-23T09:37:50.729Z,99886.59
2023-04-23T09:40:20.599Z,99893.69
2023-04-23T09:42:53.513Z,99893.69
2023-04-23T09:45:21.550Z,99886.34
2023-04-23T09:47:53.652Z,99890.44
2023-04-23T09:50:41.361Z,99891.66
2023-04-23T09:53:10.048Z,99890.09
2023-04-23T09:55:40.234Z,99889.00
2023-04-23T09:58:12.214Z,99892.59
2023-04-23T10:00:40.530Z,99895.28
2023-04-23T10:03:09.289Z,99888.25
2023-04-23T10:08:15.585Z,99904.56
2023-04-23T10:10:57.440Z,99905.75
2023-04-23T10:13:30.277Z,99894.78
2023-04-23T10:16:07.170Z,99898.88
2023-04-23T10:18:42.091Z,99901.06
2023-04-23T10:21:09.959Z,99898.78
2023-04-23T10:23:39.190Z,99903.63
2023-04-23T10:26:07.541Z,99892.13
2023-04-23T10:28:36.573Z,99897.09
2023-04-23T10:31:05.974Z,99890.19
2023-04-23T10:33:40.078Z,99903.25
2023-04-23T10:36:18.142Z,99910.72
2023-04-23T10:38:57.153Z,99909.88
2023-04-23T10:41:30.661Z,99910.84
2023-04-23T10:43:58.294Z,99903.75
2023-04-23T10:46:32.729Z,99902.03
2023-04-23T10:49:17.109Z,99911.19
2023-04-23T10:54:20.165Z,99907.97
2023-04-23T10:57:00.227Z,99918.59
2023-04-23T10:59:30.244Z,99920.41
2023-04-23T11:02:07.838Z,99919.41
2023-04-23T11:04:36.922Z,99927.50
2023-04-23T11:07:08.778Z,99928.13
2023-04-23T11:09:43.295Z,99920.75
2023-04-23T11:12:26.331Z,99917.00
2023-04-23T11:14:57.411Z,99933.16
2023-04-23T11:17:33.161Z,99928.69
2023-04-23T11:20:21.195Z,99931.63
2023-04-23T11:22:50.456Z,99932.34
2023-04-23T11:25:28.648Z,99940.78
2023-04-23T11:27:58.995Z,99939.44
2023-04-23T11:30:30.609Z,99943.28
2023-04-23T11:33:00.647Z,99951.63
2023-04-23T11:35:29.785Z,99947.25
2023-04-23T11:37:57.358Z,99945.59
2023-04-23T11:40:24.652Z,99947.63
2023-04-23T11:42:58.078Z,99950.53
2023-04-23T11:45:27.520Z,99955.13
2023-04-23T11:48:01.033Z,99955.84
2023-04-23T11:50:33.857Z,99958.50
2023-04-23T11:53:09.756Z,99965.63
2023-04-23T11:55:37.346Z,99964.56
2023-04-23T11:58:04.628Z,99969.75
2023-04-23T12:00:31.717Z,99966.97
2023-04-23T12:03:05.017Z,99965.88
2023-04-23T12:05:33.452Z,99971.81
2023-04-23T12:08:15.473Z,99974.94
2023-04-23T12:11:03.740Z,99985.09
2023-04-23T12:13:34.042Z,99982.91
2023-04-23T12:16:03.692Z,99982.34
2023-04-23T12:18:32.962Z,99981.88
2023-04-23T12:21:07.684Z,99982.34
2023-04-23T12:23:36.573Z,99982.69
2023-04-23T12:26:04.187Z,99982.09
2023-04-23T12:28:32.122Z,99982.56
2023-04-23T12:31:03.490Z,99977.81
2023-04-23T12:33:31.345Z,99986.78
2023-04-23T12:35:58.886Z,99990.00
2023-04-23T12:38:30.360Z,99987.00
2023-04-23T12:40:59.507Z,99982.97
2023-04-23T12:43:27.641Z,99992.25
2023-04-23T12:45:55.686Z,99992.13
2023-04-23T12:48:22.821Z,99991.25
2023-04-23T12:50:49.893Z,99993.69
2023-04-23T12:53:19.418Z,100006.19
2023-04-23T12:55:46.571Z,99999.91
2023-04-23T12:58:13.758Z,100001.13
2023-04-23T13:00:41.311Z,100004.25
2023-04-23T13:03:09.233Z,99997.56
2023-04-23T13:05:36.322Z,100011.00
2023-04-23T13:08:03.486Z,100010.75
2023-04-23T13:10:31.234Z,100007.97
2023-04-23T13:12:58.527Z,100007.97
2023-04-23T13:15:27.231Z,100013.88
2023-04-23T13:17:54.519Z,100020.63
2023-04-23T13:20:22.192Z,100015.03
2023-04-23T13:22:49.194Z,100019.00
2023-04-23T13:25:16.385Z,100021.53
2023-04-23T13:27:43.590Z,100023.25
2023-04-23T13:30:11.422Z,100018.63
2023-04-23T13:32:38.789Z,100022.72
2023-04-23T13:35:08.306Z,100021.03
2023-04-23T13:37:37.025Z,100011.47
2023-04-23T13:40:04.566Z,100017.91
2023-04-23T13:42:32.057Z,100020.56
2023-04-23T13:44:59.114Z,100028.44
2023-04-23T13:47:27.958Z,100018.63
2023-04-23T13:49:55.217Z,100026.03
2023-04-23T13:52:22.531Z,100023.25
2023-04-23T13:54:51.291Z,100015.50
2023-04-23T13:57:18.330Z,100021.69
2023-04-23T13:59:46.418Z,100022.63
2023-04-23T14:02:13.670Z,100036.94
2023-04-23T14:04:41.334Z,100035.63
2023-04-23T14:07:09.498Z,100026.34
2023-04-23T14:09:37.183Z,100035.19
2023-04-23T14:12:05.194Z,100029.25
2023-04-23T14:14:32.337Z,100037.63
2023-04-23T14:16:59.607Z,100048.38
2023-04-23T14:19:27.753Z,100051.78
2023-04-23T14:21:56.420Z,100045.72
2023-04-23T14:24:29.479Z,100043.06
2023-04-23T14:26:57.433Z,100042.94
2023-04-23T14:29:48.751Z,100052.34
2023-04-23T14:32:15.903Z,100042.25
2023-04-23T14:34:44.242Z,100041.63
2023-04-23T14:37:12.013Z,100045.16
2023-04-23T14:39:40.661Z,100049.03
2023-04-23T14:42:08.568Z,100053.38
2023-04-23T14:44:36.210Z,100046.25
2023-04-23T14:47:09.650Z,100054.94
2023-04-23T14:49:45.827Z,100056.25
2023-04-23T14:52:13.768Z,100057.47
2023-04-23T14:54:41.192Z,100066.28
2023-04-23T14:57:08.816Z,100068.00
2023-04-23T14:59:36.387Z,100068.84
2023-04-23T15:02:04.540Z,100077.09
2023-04-23T15:04:32.027Z,100075.38
2023-04-23T15:07:00.029Z,100081.66
2023-04-23T15:09:29.317Z,100092.44
2023-04-23T15:11:57.558Z,100100.28
2023-04-23T15:14:31.083Z,100099.47
2023-04-23T15:16:58.693Z,100094.72
2023-04-23T15:19:25.960Z,100096.19
2023-04-23T15:21:53.138Z,100113.47
2023-04-23T15:24:20.430Z,100106.59
2023-04-23T15:26:50.043Z,100112.16
2023-04-23T15:29:18.690Z,100113.84
2023-04-23T15:31:46.276Z,100113.84
2023-04-23T15:34:14.837Z,100090.88
2023-04-23T15:36:42.328Z,100121.25
2023-04-23T15:39:10.149Z,100118.81
2023-04-23T15:41:40.596Z,100124.75
2023-04-23T15:44:12.575Z,100121.59
2023-04-23T15:46:40.283Z,100121.38
2023-04-23T15:49:07.577Z,100126.94
2023-04-23T15:51:34.853Z,100138.50
2023-04-23T15:54:03.156Z,100136.56
2023-04-23T15:56:30.941Z,100143.47
2023-04-23T15:58:58.134Z,100140.34
2023-04-23T16:01:27.050Z,100144.94
2023-04-23T16:04:09.721Z,100135.84
2023-04-23T16:06:38.506Z,100147.69
2023-04-23T16:09:08.863Z,100149.66
2023-04-23T16:11:37.376Z,100150.50
2023-04-23T16:14:05.685Z,100145.03
2023-04-23T16:16:33.016Z,100151.34
2023-04-23T16:19:00.476Z,100153.75
2023-04-23T16:21:28.443Z,100154.72
2023-04-23T16:23:55.748Z,100162.09
2023-04-23T16:26:24.101Z,100161.94
2023-04-23T16:29:05.429Z,100160.28
2023-04-23T16:31:41.078Z,100165.69
2023-04-23T16:34:08.878Z,100166.69
2023-04-23T16:36:36.291Z,100169.34
2023-04-23T16:39:04.932Z,100170.22
2023-04-23T16:41:32.961Z,100171.25
2023-04-23T16:44:00.313Z,100167.75
2023-04-23T16:46:30.445Z,100171.72
2023-04-23T16:48:58.164Z,100170.91
2023-04-23T16:51:27.005Z,100175.00
2023-04-23T16:53:54.961Z,100183.38
2023-04-23T16:56:24.197Z,100186.13
2023-04-23T16:58:51.488Z,100193.41
2023-04-23T17:01:18.875Z,100186.28
2023-04-23T17:03:46.728Z,100187.59
2023-04-23T17:06:27.947Z,100202.00
2023-04-23T17:08:55.559Z,100194.28
2023-04-23T17:11:23.503Z,100199.59
2023-04-23T17:13:52.140Z,100209.38
2023-04-23T17:16:19.881Z,100216.66
2023-04-23T17:18:47.093Z,100222.94
2023-04-23T17:21:14.442Z,100232.63
2023-04-23T17:23:41.531Z,100233.59
2023-04-23T17:26:08.632Z,100240.84
2023-04-23T17:28:36.141Z,100233.72
2023-04-23T17:31:03.940Z,100241.84
2023-04-23T17:33:31.837Z,100244.13
2023-04-23T17:35:59.180Z,100245.59
2023-04-23T17:38:26.668Z,100254.63
2023-04-23T17:40:54.247Z,100258.28
2023-04-23T17:43:22.201Z,100255.97
2023-04-23T17:45:49.480Z,100268.16
2023-04-23T17:48:16.759Z,100262.47
2023-04-23T17:50:44.672Z,100274.69
2023-04-23T17:53:11.835Z,100273.44
2023-04-23T17:55:39.046Z,100278.28
2023-04-23T17:58:06.239Z,100280.47
2023-04-23T18:00:37.872Z,100289.19
2023-04-23T18:03:05.789Z,100288.47
2023-04-23T18:05:33.784Z,100282.91
2023-04-23T18:08:01.289Z,100282.66
2023-04-23T18:10:29.369Z,100286.88
2023-04-23T18:12:57.047Z,100281.47
2023-04-23T18:15:26.104Z,100285.56
2023-04-23T18:17:56.162Z,100299.88
2023-04-23T18:20:25.152Z,100292.84
2023-04-23T18:22:54.654Z,100305.78
2023-04-23T18:25:22.171Z,100303.00
2023-04-23T18:27:49.832Z,100298.44
2023-04-23T18:30:18.274Z,100302.81
2023-04-23T18:32:50.780Z,100301.72
2023-04-23T18:35:18.596Z,100315.59
2023-04-23T18:38:03.361Z,100319.03
2023-04-23T18:40:30.798Z,100317.94
2023-04-23T18:42:58.195Z,100321.31
2023-04-23T18:45:25.614Z,100328.44
2023-04-23T18:48:01.356Z,100338.00
2023-04-23T18:50:49.216Z,100342.22
2023-04-23T18:53:16.609Z,100354.59
2023-04-23T18:55:43.759Z,100343.72
2023-04-23T18:58:11.434Z,100359.69
2023-04-23T19:00:38.684Z,100369.34
2023-04-23T19:03:15.374Z,100365.00
2023-04-23T19:05:51.573Z,100366.91
2023-04-23T19:08:18.712Z,100376.13
2023-04-23T19:10:45.896Z,100377.94
2023-04-23T19:13:13.553Z,100383.38
2023-04-23T19:15:41.097Z,100380.72
2023-04-23T19:18:08.633Z,100382.41
2023-04-23T19:20:38.600Z,100385.19
2023-04-23T19:23:05.992Z,100391.38
2023-04-23T19:25:33.177Z,100393.41
2023-04-23T19:28:00.496Z,100392.56
2023-04-23T19:30:27.906Z,100412.16
2023-04-23T19:32:55.672Z,100405.88
2023-04-23T19:35:23.401Z,100410.22
2023-04-23T19:37:51.488Z,100411.16
2023-04-23T19:40:18.905Z,100410.91
2023-04-23T19:42:47.579Z,100412.16
2023-04-23T19:45:21.145Z,100420.47
2023-04-23T19:47:48.683Z,100421.56
2023-04-23T19:50:21.425Z,100419.13
2023-04-23T19:52:49.271Z,100425.63
2023-04-23T19:55:19.151Z,100431.91
2023-04-23T19:57:46.687Z,100424.16
2023-04-23T20:00:15.028Z,100436.75
2023-04-23T20:02:42.593Z,100433.59
2023-04-23T20:05:15.052Z,100439.84
2023-04-23T20:07:42.606Z,100439.97
2023-04-23T20:10:10.369Z,100438.50
2023-04-23T20:12:37.886Z,100447.56
2023-04-23T20:15:05.486Z,100442.59
2023-04-23T20:17:33.290Z,100449.00
2023-04-23T20:20:02.892Z,100452.84
2023-04-23T20:22:30.872Z,100454.75
2023-04-23T20:24:58.312Z,100447.84
2023-04-23T20:27:26.856Z,100457.78
2023-04-23T20:29:54.476Z,100462.34
2023-04-23T20:32:24.065Z,100476.72
2023-04-23T20:34:51.464Z,100466.09
2023-04-23T20:37:22.003Z,100474.16
2023-04-23T20:39:50.274Z,100472.59
2023-04-23T20:42:17.669Z,100466.75
2023-04-23T20:44:49.606Z,100471.22
2023-04-23T20:47:17.522Z,100474.00
2023-04-23T20:49:45.223Z,100481.53
2023-04-23T20:52:14.022Z,100480.38
2023-04-23T20:54:42.054Z,100482.28
2023-04-23T20:57:09.408Z,100473.34
2023-04-23T20:59:36.813Z,100479.94
2023-04-23T21:02:04.567Z,100469.88
2023-04-23T21:04:31.943Z,100473.78
2023-04-23T21:06:59.506Z,100478.59
2023-04-23T21:09:26.984Z,100474.66
2023-04-23T21:11:54.814Z,100474.31
2023-04-23T21:14:22.221Z,100477.09
2023-04-23T21:16:49.648Z,100477.44
2023-04-23T21:19:16.839Z,100485.59
2023-04-23T21:21:44.147Z,100489.53
2023-04-23T21:24:12.060Z,100489.84
2023-04-23T21:26:39.447Z,100486.69
2023-04-23T21:29:06.708Z,100488.75
2023-04-23T21:31:45.965Z,100494.31
2023-04-23T21:34:17.420Z,100496.44
2023-04-23T21:36:47.635Z,100500.97
2023-04-23T21:39:15.609Z,100501.16
2023-04-23T21:41:42.940Z,100501.41
2023-04-23T21:44:10.093Z,100483.22
2023-04-23T21:46:37.483Z,100492.88
2023-04-23T21:49:04.740Z,100491.50
2023-04-23T21:51:37.257Z,100499.72
2023-04-23T21:54:06.480Z,100504.41
2023-04-23T21:56:34.374Z,100511.59
2023-04-23T21:59:01.722Z,100510.00
2023-04-23T22:01:28.869Z,100510.19
2023-04-23T22:03:56.046Z,100519.19
2023-04-23T22:06:23.944Z,100519.50
2023-04-23T22:08:51.544Z,100519.72
2023-04-23T22:11:19.635Z,100527.03
2023-04-23T22:13:46.934Z,100522.88
2023-04-23T22:16:27.376Z,100521.28
2023-04-23T22:18:57.404Z,100516.34
2023-04-23T22:21:24.593Z,100517.41
2023-04-23T22:23:51.948Z,100519.44
2023-04-23T22:26:19.660Z,100522.91
2023-04-23T22:28:47.236Z,100515.06
2023-04-23T22:31:14.362Z,100510.81
2023-04-23T22:33:41.593Z,100515.25
2023-04-23T22:36:08.768Z,100510.16
2023-04-23T22:38:35.896Z,100510.34
2023-04-23T22:41:03.068Z,100514.16
2023-04-23T22:43:30.155Z,100516.88
2023-04-23T22:45:57.509Z,100511.03
2023-04-23T22:48:24.792Z,100521.56
2023-04-23T22:50:53.034Z,100524.47
2023-04-23T22:53:20.180Z,100521.09
2023-04-23T22:55:47.442Z,100527.44
2023-04-23T22:58:14.718Z,100532.06
2023-04-23T23:00:42.046Z,100529.41
2023-04-23T23:03:09.749Z,100531.44
2023-04-23T23:05:36.997Z,100530.56
2023-04-23T23:08:04.122Z,100529.72
2023-04-23T23:10:31.257Z,100526.31
2023-04-23T23:12:58.245Z,100530.94
2023-04-23T23:15:25.269Z,100523.09
2023-04-23T23:17:52.435Z,100536.44
2023-04-23T23:20:20.096Z,100532.97
2023-04-23T23:22:47.434Z,100534.06
2023-04-23T23:25:14.434Z,100527.28
2023-04-23T23:27:41.912Z,100529.16
2023-04-23T23:30:09.975Z,100526.63
2023-04-23T23:32:37.497Z,100529.38
2023-04-23T23:35:05.130Z,100539.97
2023-04-23T23:37:32.560Z,100534.84
2023-04-23T23:39:59.551Z,100542.84
2023-04-23T23:42:26.519Z,100542.84
2023-04-23T23:44:53.415Z,100537.66
2023-04-23T23:47:20.824Z,100544.63
2023-04-23T23:49:47.805Z,100549.28
2023-04-23T23:52:14.755Z,100555.44
2023-04-23T23:54:41.710Z,100551.38
2023-04-23T23:57:08.850Z,100558.28
2023-04-23T23:59:35.841Z,100554.84
